createdAt,value
2022-12-16T00:01:22.796Z,-4.53
2022-12-16T00:06:26.294Z,-5.14
2022-12-16T00:11:27.819Z,-5.72
2022-12-16T00:16:29.064Z,-6.18
2022-12-16T00:21:30.031Z,-6.18
2022-12-16T00:26:31.015Z,-6.19
2022-12-16T00:31:32.287Z,-6.06
2022-12-16T00:36:33.729Z,-6.00
2022-12-16T00:41:34.576Z,-6.01
2022-12-16T00:46:35.464Z,-6.04
2022-12-16T00:51:36.194Z,-5.92
2022-12-16T00:56:36.990Z,-5.57
2022-12-16T01:01:37.911Z,-5.19
2022-12-16T01:06:39.456Z,-5.01
2022-12-16T01:11:40.163Z,-5.42
2022-12-16T01:16:41.091Z,-5.44
2022-12-16T01:21:41.960Z,-5.45
2022-12-16T01:26:42.757Z,-5.57
2022-12-16T01:31:43.758Z,-5.42
2022-12-16T01:36:44.981Z,-5.47
2022-12-16T01:41:45.749Z,-5.45
2022-12-16T01:46:53.152Z,-5.42
2022-12-16T01:52:01.629Z,-5.38
2022-12-16T01:57:07.945Z,-5.23
2022-12-16T02:02:10.113Z,-5.11
2022-12-16T02:07:11.042Z,-5.12
2022-12-16T02:12:26.719Z,-5.08
2022-12-16T02:17:37.685Z,-4.89
2022-12-16T02:23:26.626Z,-4.74
2022-12-16T02:29:04.976Z,-4.64
2022-12-16T02:34:23.731Z,-4.80
2022-12-16T02:39:41.023Z,-4.85
2022-12-16T02:51:32.764Z,-5.18
2022-12-16T02:56:49.718Z,-5.56
2022-12-16T03:02:04.606Z,-5.59
2022-12-16T03:07:12.578Z,-5.71
2022-12-16T03:12:17.308Z,-5.85
2022-12-16T03:17:21.240Z,-5.72
2022-12-16T03:22:27.111Z,-5.58
2022-12-16T03:28:15.950Z,-5.58
2022-12-16T03:33:29.736Z,-5.73
2022-12-16T03:38:33.013Z,-5.72
2022-12-16T03:43:34.400Z,-5.60
2022-12-16T03:48:35.986Z,-5.61
2022-12-16T03:53:36.704Z,-5.52
2022-12-16T03:58:41.759Z,-5.46
2022-12-16T04:03:42.540Z,-5.48
2022-12-16T04:08:47.531Z,-5.31
2022-12-16T04:14:06.935Z,-5.31
2022-12-16T04:19:37.624Z,-5.21
2022-12-16T04:24:38.567Z,-5.11
2022-12-16T04:30:18.244Z,-5.03
2022-12-16T04:35:37.953Z,-5.10
2022-12-16T04:40:57.295Z,-4.89
2022-12-16T04:46:16.859Z,-4.89
2022-12-16T04:51:36.386Z,-4.93
2022-12-16T04:56:55.859Z,-4.93
2022-12-16T05:02:15.620Z,-4.95
2022-12-16T05:07:38.462Z,-4.87
2022-12-16T05:12:58.079Z,-4.92
2022-12-16T05:18:17.479Z,-4.80
2022-12-16T05:23:37.195Z,-4.75
2022-12-16T05:28:56.640Z,-4.82
2022-12-16T05:34:16.258Z,-4.88
2022-12-16T05:39:35.709Z,-4.86
2022-12-16T05:44:55.288Z,-4.98
2022-12-16T05:50:14.813Z,-5.10
2022-12-16T05:55:35.899Z,-5.18
2022-12-16T06:00:55.507Z,-5.29
2022-12-16T06:06:15.428Z,-5.22
2022-12-16T06:11:34.883Z,-5.14
2022-12-16T06:16:54.390Z,-5.24
2022-12-16T06:22:13.753Z,-5.24
2022-12-16T06:27:33.175Z,-5.27
2022-12-16T06:32:52.644Z,-5.12
2022-12-16T06:38:12.317Z,-5.15
2022-12-16T06:43:32.344Z,-4.99
2022-12-16T06:48:52.447Z,-4.88
2022-12-16T06:54:12.197Z,-4.93
2022-12-16T06:59:31.972Z,-5.03
2022-12-16T07:04:51.474Z,-5.14
2022-12-16T07:10:10.858Z,-5.18
2022-12-16T07:15:30.536Z,-5.02
2022-12-16T07:20:49.978Z,-5.15
2022-12-16T07:26:10.556Z,-5.16
2022-12-16T07:31:29.986Z,-5.10
2022-12-16T07:36:49.405Z,-5.10
2022-12-16T07:42:08.748Z,-5.09
2022-12-16T07:47:28.146Z,-4.92
2022-12-16T07:52:47.678Z,-4.01
2022-12-16T07:58:09.119Z,-4.01
2022-12-16T08:03:28.609Z,-3.63
2022-12-16T08:08:47.820Z,-3.50
2022-12-16T08:14:07.517Z,-2.90
2022-12-16T08:19:27.513Z,-3.00
2022-12-16T08:24:53.297Z,-2.89
2022-12-16T08:30:13.242Z,-2.69
2022-12-16T08:35:32.639Z,-2.40
2022-12-16T08:40:52.091Z,-2.23
2022-12-16T08:46:15.299Z,-2.19
2022-12-16T08:51:35.115Z,-2.08
2022-12-16T08:56:54.556Z,-2.46
2022-12-16T09:02:15.326Z,-1.54
2022-12-16T09:07:35.659Z,-1.45
2022-12-16T09:12:55.117Z,-1.41
2022-12-16T09:18:15.215Z,-0.83
2022-12-16T09:23:34.989Z,-0.76
2022-12-16T09:28:54.991Z,-0.22
2022-12-16T09:34:14.641Z,-0.13
2022-12-16T09:39:34.137Z,0.16
2022-12-16T09:45:28.911Z,0.45
2022-12-16T09:50:50.005Z,0.34
2022-12-16T09:56:10.528Z,0.75
2022-12-16T10:01:31.067Z,0.29
2022-12-16T10:06:59.959Z,0.49
2022-12-16T10:14:00.882Z,0.93
2022-12-16T10:21:24.722Z,0.81
2022-12-16T10:27:08.376Z,0.65
2022-12-16T10:32:56.307Z,1.09
2022-12-16T10:38:16.509Z,1.55
2022-12-16T10:45:19.823Z,1.37
2022-12-16T10:50:39.674Z,1.69
2022-12-16T10:59:13.961Z,1.65
2022-12-16T11:08:11.311Z,1.74
2022-12-16T11:13:53.261Z,2.12
2022-12-16T11:19:12.742Z,1.90
2022-12-16T11:24:38.143Z,1.05
2022-12-16T11:30:50.215Z,1.08
2022-12-16T11:36:12.659Z,1.64
2022-12-16T11:41:50.303Z,0.68
2022-12-16T11:47:10.434Z,0.32
2022-12-16T11:52:37.784Z,0.67
2022-12-16T11:58:11.140Z,1.10
2022-12-16T12:03:40.905Z,1.48
2022-12-16T12:10:07.033Z,1.09
2022-12-16T12:16:26.776Z,1.11
2022-12-16T12:22:10.162Z,0.94
2022-12-16T12:29:11.229Z,0.99
2022-12-16T12:34:53.479Z,0.60
2022-12-16T12:40:41.414Z,0.26
2022-12-16T12:46:31.389Z,0.53
2022-12-16T12:54:57.949Z,1.03
2022-12-16T13:00:38.486Z,1.48
2022-12-16T13:05:59.255Z,1.49
2022-12-16T13:11:35.301Z,1.88
2022-12-16T13:17:18.930Z,2.24
2022-12-16T13:22:52.038Z,2.35
2022-12-16T13:28:14.531Z,1.74
2022-12-16T13:36:15.621Z,2.10
2022-12-16T13:42:09.278Z,1.91
2022-12-16T13:47:51.196Z,1.92
2022-12-16T13:53:15.719Z,2.10
2022-12-16T13:58:56.316Z,2.59
2022-12-16T14:04:18.005Z,2.46
2022-12-16T14:09:45.875Z,1.60
2022-12-16T14:15:23.400Z,1.00
2022-12-16T14:20:53.554Z,0.98
2022-12-16T14:26:17.248Z,1.18
2022-12-16T14:31:50.680Z,1.01
2022-12-16T14:37:12.047Z,0.84
2022-12-16T14:42:43.110Z,0.91
2022-12-16T14:49:35.806Z,1.70
2022-12-16T14:55:01.077Z,1.66
2022-12-16T15:00:56.738Z,0.41
2022-12-16T15:06:16.736Z,0.20
2022-12-16T15:11:38.648Z,0.43
2022-12-16T15:17:00.388Z,0.13
2022-12-16T15:22:20.150Z,0.00
2022-12-16T15:27:44.133Z,-1.50
2022-12-16T15:33:10.722Z,-2.52
2022-12-16T15:39:13.730Z,-3.10
2022-12-16T15:44:45.271Z,-3.57
2022-12-16T15:50:06.715Z,-3.98
2022-12-16T15:56:02.568Z,-4.11
2022-12-16T16:01:26.369Z,-4.17
2022-12-16T16:06:46.333Z,-4.24
2022-12-16T16:12:05.654Z,-4.24
2022-12-16T16:17:43.445Z,-4.18
2022-12-16T16:23:02.807Z,-4.26
2022-12-16T16:28:22.740Z,-4.36
2022-12-16T16:33:42.216Z,-4.36
2022-12-16T16:39:01.784Z,-4.42
2022-12-16T16:44:21.218Z,-4.58
2022-12-16T16:50:05.018Z,-4.72
2022-12-16T16:55:25.896Z,-4.66
2022-12-16T17:00:45.964Z,-4.79
2022-12-16T17:06:05.630Z,-4.82
2022-12-16T17:11:36.102Z,-4.94
2022-12-16T17:16:55.530Z,-4.98
2022-12-16T17:22:14.950Z,-4.98
2022-12-16T17:27:37.818Z,-4.96
2022-12-16T17:32:57.276Z,-4.90
2022-12-16T17:38:16.715Z,-5.01
2022-12-16T17:43:36.987Z,-5.10
2022-12-16T17:48:56.362Z,-5.18
2022-12-16T17:54:22.671Z,-5.15
2022-12-16T17:59:44.834Z,-5.20
2022-12-16T18:05:04.417Z,-5.19
2022-12-16T18:10:25.115Z,-5.24
2022-12-16T18:15:44.602Z,-5.32
2022-12-16T18:21:03.797Z,-5.26
2022-12-16T18:26:25.607Z,-5.18
2022-12-16T18:31:45.099Z,-5.28
2022-12-16T18:37:04.624Z,-5.42
2022-12-16T18:42:24.234Z,-5.32
2022-12-16T18:47:43.629Z,-5.17
2022-12-16T18:53:03.102Z,-5.14
2022-12-16T18:58:49.543Z,-5.08
2022-12-16T19:04:11.741Z,-4.98
2022-12-16T19:09:31.301Z,-4.95
2022-12-16T19:14:50.627Z,-4.29
2022-12-16T19:20:10.086Z,-4.65
2022-12-16T19:25:29.555Z,-4.85
2022-12-16T19:32:01.502Z,-4.88
2022-12-16T19:37:21.433Z,-4.86
2022-12-16T19:42:41.041Z,-5.24
2022-12-16T19:48:00.896Z,-5.34
2022-12-16T19:53:20.401Z,-5.23
2022-12-16T19:58:40.296Z,-5.17
2022-12-16T20:03:59.844Z,-5.20
2022-12-16T20:09:20.289Z,-5.28
2022-12-16T20:14:39.943Z,-5.34
2022-12-16T20:19:59.449Z,-5.22
2022-12-16T20:25:19.154Z,-5.25
2022-12-16T20:30:38.676Z,-5.32
2022-12-16T20:35:58.174Z,-5.42
2022-12-16T20:41:19.541Z,-5.39
2022-12-16T20:46:39.037Z,-5.24
2022-12-16T20:51:58.524Z,-5.13
2022-12-16T20:57:18.020Z,-4.92
2022-12-16T21:02:37.640Z,-4.96
2022-12-16T21:07:57.011Z,-5.13
2022-12-16T21:14:57.320Z,-5.04
2022-12-16T21:20:16.732Z,-5.08
2022-12-16T21:25:36.308Z,-5.30
2022-12-16T21:30:55.943Z,-5.19
2022-12-16T21:36:15.938Z,-5.14
2022-12-16T21:41:35.726Z,-5.18
2022-12-16T21:46:55.336Z,-5.16
2022-12-16T21:52:16.370Z,-5.12
2022-12-16T21:57:35.778Z,-5.19
2022-12-16T22:02:55.751Z,-5.56
2022-12-16T22:08:15.732Z,-5.78
2022-12-16T22:13:35.570Z,-5.63
2022-12-16T22:18:56.135Z,-5.70
2022-12-16T22:24:15.723Z,-6.09
2022-12-16T22:29:35.240Z,-6.16
2022-12-16T22:34:54.698Z,-6.07
2022-12-16T22:40:15.024Z,-5.90
2022-12-16T22:45:34.467Z,-6.01
2022-12-16T22:50:54.062Z,-6.16
2022-12-16T22:56:16.019Z,-6.15
2022-12-16T23:01:35.582Z,-6.22
2022-12-16T23:06:56.187Z,-6.22
2022-12-16T23:12:15.782Z,-6.32
2022-12-16T23:17:35.131Z,-6.41
2022-12-16T23:22:54.895Z,-6.51
2022-12-16T23:28:15.937Z,-6.58
2022-12-16T23:33:36.136Z,-6.50
2022-12-16T23:38:55.529Z,-6.60
2022-12-16T23:44:16.135Z,-6.59
2022-12-16T23:49:35.891Z,-6.59
2022-12-16T23:54:55.563Z,-6.59
